createdAt,value
2023-02-19T00:00:29.825Z,100187.55
2023-02-19T00:03:21.541Z,100181.48
2023-02-19T00:05:53.346Z,100182.95
2023-02-19T00:08:25.217Z,100184.01
2023-02-19T00:11:00.839Z,100177.20
2023-02-19T00:13:36.370Z,100177.21
2023-02-19T00:16:10.691Z,100174.71
2023-02-19T00:18:42.629Z,100173.81
2023-02-19T00:21:15.264Z,100172.57
2023-02-19T00:23:49.272Z,100174.55
2023-02-19T00:26:21.874Z,100175.96
2023-02-19T00:28:56.607Z,100175.09
2023-02-19T00:31:32.682Z,100176.70
2023-02-19T00:34:07.161Z,100180.97
2023-02-19T00:36:40.941Z,100181.11
2023-02-19T00:39:16.145Z,100175.21
2023-02-19T00:41:48.047Z,100178.05
2023-02-19T00:44:19.964Z,100179.87
2023-02-19T00:46:53.332Z,100179.16
2023-02-19T00:49:26.020Z,100176.84
2023-02-19T00:51:58.190Z,100180.94
2023-02-19T00:54:31.556Z,100177.36
2023-02-19T00:57:03.826Z,100174.52
2023-02-19T00:59:36.849Z,100172.17
2023-02-19T01:02:08.626Z,100180.05
2023-02-19T01:04:40.749Z,100176.98
2023-02-19T01:07:12.547Z,100183.09
2023-02-19T01:09:44.686Z,100182.91
2023-02-19T01:12:16.642Z,100179.89
2023-02-19T01:14:48.379Z,100177.92
2023-02-19T01:17:20.175Z,100167.38
2023-02-19T01:19:52.155Z,100157.39
2023-02-19T01:22:23.980Z,100159.34
2023-02-19T01:24:56.539Z,100155.91
2023-02-19T01:27:28.436Z,100155.23
2023-02-19T01:30:00.260Z,100150.60
2023-02-19T01:32:32.200Z,100153.10
2023-02-19T01:35:04.497Z,100152.03
2023-02-19T01:37:37.211Z,100139.85
2023-02-19T01:40:10.541Z,100135.90
2023-02-19T01:42:45.724Z,100138.41
2023-02-19T01:45:26.294Z,100143.11
2023-02-19T01:48:03.576Z,100143.61
2023-02-19T01:50:42.500Z,100146.27
2023-02-19T01:53:18.174Z,100140.73
2023-02-19T01:55:54.013Z,100142.55
2023-02-19T01:58:29.705Z,100140.39
2023-02-19T02:01:03.207Z,100131.44
2023-02-19T02:03:37.956Z,100125.36
2023-02-19T02:06:18.816Z,100125.91
2023-02-19T02:09:11.787Z,100120.04
2023-02-19T02:11:47.196Z,100111.63
2023-02-19T02:14:24.418Z,100102.86
2023-02-19T02:17:06.511Z,100101.21
2023-02-19T02:20:03.713Z,100098.22
2023-02-19T02:22:43.085Z,100095.91
2023-02-19T02:25:41.189Z,100094.81
2023-02-19T02:28:47.525Z,100090.72
2023-02-19T02:31:24.098Z,100088.77
2023-02-19T02:34:01.251Z,100087.86
2023-02-19T02:36:37.159Z,100090.36
2023-02-19T02:39:12.847Z,100073.91
2023-02-19T02:42:10.156Z,100079.10
2023-02-19T02:45:03.640Z,100079.48
2023-02-19T02:47:44.919Z,100078.04
2023-02-19T02:50:21.058Z,100073.42
2023-02-19T02:53:14.775Z,100077.73
2023-02-19T02:55:49.027Z,100067.00
2023-02-19T02:58:24.117Z,100063.02
2023-02-19T03:01:18.123Z,100059.95
2023-02-19T03:03:56.336Z,100059.95
2023-02-19T03:06:32.770Z,100056.77
2023-02-19T03:09:12.522Z,100058.02
2023-02-19T03:12:05.407Z,100055.34
2023-02-19T03:15:00.745Z,100056.36
2023-02-19T03:18:10.883Z,100055.29
2023-02-19T03:20:48.089Z,100050.11
2023-02-19T03:23:21.743Z,100047.45
2023-02-19T03:26:05.970Z,100039.58
2023-02-19T03:29:05.880Z,100038.52
2023-02-19T03:31:43.305Z,100025.09
2023-02-19T03:34:23.006Z,100023.51
2023-02-19T03:36:58.964Z,100023.48
2023-02-19T03:39:31.984Z,100023.13
2023-02-19T03:42:12.592Z,100023.84
2023-02-19T03:44:54.323Z,100024.55
2023-02-19T03:47:28.791Z,100020.43
2023-02-19T03:50:08.297Z,100015.02
2023-02-19T03:52:45.682Z,100009.63
2023-02-19T03:55:24.414Z,100009.10
2023-02-19T03:58:03.935Z,100009.89
2023-02-19T04:00:43.777Z,100013.25
2023-02-19T04:03:22.172Z,100009.84
2023-02-19T04:05:59.712Z,100009.81
2023-02-19T04:08:35.266Z,100011.75
2023-02-19T04:11:10.115Z,100017.34
2023-02-19T04:13:47.214Z,100024.31
2023-02-19T04:16:22.838Z,100024.84
2023-02-19T04:18:58.261Z,100030.83
2023-02-19T04:21:32.157Z,100035.65
2023-02-19T04:24:07.991Z,100036.91
2023-02-19T04:26:40.210Z,100036.57
2023-02-19T04:29:12.148Z,100043.01
2023-02-19T04:31:44.313Z,100052.48
2023-02-19T04:34:16.139Z,100049.48
2023-02-19T04:36:48.070Z,100058.23
2023-02-19T04:39:20.236Z,100056.63
2023-02-19T04:41:52.347Z,100060.20
2023-02-19T04:44:24.078Z,100048.22
2023-02-19T04:46:55.935Z,100043.38
2023-02-19T04:49:27.635Z,100044.64
2023-02-19T04:51:59.473Z,100050.37
2023-02-19T04:54:31.235Z,100056.61
2023-02-19T04:57:02.901Z,100063.27
2023-02-19T04:59:34.932Z,100066.86
2023-02-19T05:02:06.836Z,100067.77
2023-02-19T05:04:38.752Z,100068.85
2023-02-19T05:07:10.817Z,100071.11
2023-02-19T05:09:42.523Z,100067.38
2023-02-19T05:12:14.148Z,100064.17
2023-02-19T05:14:45.817Z,100063.08
2023-02-19T05:17:17.525Z,100061.14
2023-02-19T05:19:49.173Z,100062.89
2023-02-19T05:22:21.038Z,100059.36
2023-02-19T05:24:53.209Z,100059.38
2023-02-19T05:27:25.175Z,100059.38
2023-02-19T05:29:56.857Z,100064.36
2023-02-19T05:32:28.889Z,100067.21
2023-02-19T05:35:00.723Z,100068.63
2023-02-19T05:37:32.818Z,100066.51
2023-02-19T05:40:04.886Z,100064.89
2023-02-19T05:42:36.394Z,100064.89
2023-02-19T05:45:09.721Z,100065.21
2023-02-19T05:47:41.425Z,100066.45
2023-02-19T05:50:13.188Z,100064.14
2023-02-19T05:52:45.180Z,100066.33
2023-02-19T05:55:17.019Z,100069.38
2023-02-19T05:57:49.625Z,100073.84
2023-02-19T06:00:20.148Z,100076.70
2023-02-19T06:02:52.250Z,100074.02
2023-02-19T06:05:24.417Z,100075.27
2023-02-19T06:07:56.348Z,100072.10
2023-02-19T06:10:28.173Z,100070.30
2023-02-19T06:12:59.979Z,100070.30
2023-02-19T06:15:31.848Z,100072.27
2023-02-19T06:18:04.020Z,100066.20
2023-02-19T06:20:35.787Z,100064.94
2023-02-19T06:23:07.845Z,100071.17
2023-02-19T06:25:39.597Z,100074.74
2023-02-19T06:28:11.351Z,100078.65
2023-02-19T06:30:43.138Z,100082.77
2023-02-19T06:33:14.926Z,100084.91
2023-02-19T06:35:46.823Z,100090.29
2023-02-19T06:38:18.746Z,100092.96
2023-02-19T06:40:50.397Z,100096.73
2023-02-19T06:43:24.358Z,100099.56
2023-02-19T06:45:58.863Z,100102.23
2023-02-19T06:48:32.317Z,100106.17
2023-02-19T06:51:04.396Z,100110.31
2023-02-19T06:53:36.164Z,100116.55
2023-02-19T06:56:22.210Z,100116.38
2023-02-19T06:58:55.658Z,100119.08
2023-02-19T07:01:28.120Z,100118.16
2023-02-19T07:04:00.146Z,100119.58
2023-02-19T07:06:32.852Z,100116.90
2023-02-19T07:09:06.516Z,100116.91
2023-02-19T07:11:40.360Z,100117.80
2023-02-19T07:14:17.179Z,100117.96
2023-02-19T07:16:49.036Z,100117.23
2023-02-19T07:19:21.050Z,100118.13
2023-02-19T07:21:52.747Z,100122.95
2023-02-19T07:24:24.516Z,100122.58
2023-02-19T07:26:56.280Z,100127.91
2023-02-19T07:29:28.352Z,100132.95
2023-02-19T07:32:00.202Z,100134.55
2023-02-19T07:34:32.207Z,100134.20
2023-02-19T07:37:04.141Z,100136.67
2023-02-19T07:39:36.087Z,100137.58
2023-02-19T07:42:08.127Z,100131.13
2023-02-19T07:44:39.836Z,100132.75
2023-02-19T07:47:11.876Z,100140.61
2023-02-19T07:49:43.739Z,100141.33
2023-02-19T07:52:16.048Z,100140.62
2023-02-19T07:54:47.852Z,100145.45
2023-02-19T07:57:20.458Z,100149.18
2023-02-19T07:59:52.752Z,100150.60
2023-02-19T08:02:42.176Z,100152.77
2023-02-19T08:05:14.363Z,100153.98
2023-02-19T08:07:46.246Z,100152.55
2023-02-19T08:10:36.363Z,100156.30
2023-02-19T08:13:22.656Z,100159.86
2023-02-19T08:16:01.715Z,100163.09
2023-02-19T08:18:40.288Z,100172.73
2023-02-19T08:21:12.665Z,100173.08
2023-02-19T08:23:44.523Z,100174.70
2023-02-19T08:26:16.490Z,100179.48
2023-02-19T08:28:49.078Z,100181.63
2023-02-19T08:31:19.413Z,100191.11
2023-02-19T08:33:53.064Z,100190.57
2023-02-19T08:36:25.373Z,100191.66
2023-02-19T08:38:57.355Z,100193.60
2023-02-19T08:41:29.361Z,100197.69
2023-02-19T08:44:01.092Z,100203.96
2023-02-19T08:46:34.434Z,100209.68
2023-02-19T08:49:08.107Z,100210.56
2023-02-19T08:51:40.413Z,100220.58
2023-02-19T08:54:12.110Z,100223.79
2023-02-19T08:56:44.068Z,100232.18
2023-02-19T08:59:15.974Z,100235.62
2023-02-19T09:01:47.792Z,100237.41
2023-02-19T09:04:19.582Z,100234.53
2023-02-19T09:06:51.542Z,100238.30
2023-02-19T09:09:23.497Z,100240.44
2023-02-19T09:11:55.463Z,100243.83
2023-02-19T09:14:27.284Z,100246.33
2023-02-19T09:16:59.066Z,100245.41
2023-02-19T09:19:31.933Z,100247.20
2023-02-19T09:22:04.620Z,100252.57
2023-02-19T09:24:37.096Z,100251.29
2023-02-19T09:27:09.851Z,100261.48
2023-02-19T09:29:40.293Z,100267.70
2023-02-19T09:32:12.579Z,100274.84
2023-02-19T09:34:44.577Z,100278.44
2023-02-19T09:37:16.506Z,100289.18
2023-02-19T09:39:48.475Z,100292.59
2023-02-19T09:42:26.136Z,100295.42
2023-02-19T09:45:01.446Z,100301.71
2023-02-19T09:47:35.372Z,100298.85
2023-02-19T09:50:10.645Z,100302.73
2023-02-19T09:52:46.314Z,100309.69
2023-02-19T09:55:24.607Z,100314.14
2023-02-19T09:57:58.077Z,100311.84
2023-02-19T10:00:33.967Z,100314.33
2023-02-19T10:03:12.508Z,100321.80
2023-02-19T10:05:44.510Z,100333.25
2023-02-19T10:08:20.042Z,100328.83
2023-02-19T10:10:52.078Z,100336.02
2023-02-19T10:13:28.748Z,100341.73
2023-02-19T10:16:02.668Z,100340.30
2023-02-19T10:18:42.547Z,100344.75
2023-02-19T10:21:19.605Z,100347.60
2023-02-19T10:23:55.297Z,100351.37
2023-02-19T10:26:31.766Z,100350.48
2023-02-19T10:29:03.914Z,100365.36
2023-02-19T10:31:34.810Z,100369.99
2023-02-19T10:34:17.716Z,100370.50
2023-02-19T10:36:51.549Z,100372.65
2023-02-19T10:39:42.229Z,100374.58
2023-02-19T10:42:23.456Z,100375.09
2023-02-19T10:45:01.667Z,100381.18
2023-02-19T10:47:35.817Z,100388.55
2023-02-19T10:50:08.708Z,100383.19
2023-02-19T10:52:42.385Z,100386.05
2023-02-19T10:55:29.453Z,100383.67
2023-02-19T10:58:21.245Z,100375.79
2023-02-19T11:01:13.152Z,100381.77
2023-02-19T11:03:46.010Z,100384.73
2023-02-19T11:06:17.358Z,100386.27
2023-02-19T11:08:55.680Z,100387.40
2023-02-19T11:11:36.685Z,100394.71
2023-02-19T11:14:17.863Z,100394.80
2023-02-19T11:16:52.971Z,100393.43
2023-02-19T11:19:32.840Z,100397.85
2023-02-19T11:22:19.577Z,100403.83
2023-02-19T11:24:57.287Z,100408.14
2023-02-19T11:27:30.378Z,100411.91
2023-02-19T11:30:35.791Z,100416.42
2023-02-19T11:33:31.017Z,100417.30
2023-02-19T11:36:25.531Z,100417.20
2023-02-19T11:38:58.777Z,100425.27
2023-02-19T11:41:55.436Z,100426.75
2023-02-19T11:44:41.008Z,100428.58
2023-02-19T11:47:38.431Z,100426.62
2023-02-19T11:50:22.628Z,100428.78
2023-02-19T11:53:07.686Z,100430.39
2023-02-19T11:55:57.588Z,100434.16
2023-02-19T12:01:51.435Z,100435.45
2023-02-19T12:05:01.531Z,100430.35
2023-02-19T12:07:53.030Z,100429.06
2023-02-19T12:10:33.087Z,100430.86
2023-02-19T12:13:15.127Z,100430.51
2023-02-19T12:16:03.347Z,100430.58
2023-02-19T12:19:13.600Z,100439.44
2023-02-19T12:21:57.681Z,100432.78
2023-02-19T12:24:49.676Z,100432.84
2023-02-19T12:27:32.296Z,100437.85
2023-02-19T12:30:24.919Z,100448.08
2023-02-19T12:33:25.105Z,100447.70
2023-02-19T12:36:05.045Z,100451.64
2023-02-19T12:38:44.145Z,100462.63
2023-02-19T12:41:31.478Z,100461.20
2023-02-19T12:44:10.442Z,100470.52
2023-02-19T12:46:46.270Z,100469.64
2023-02-19T12:49:26.953Z,100474.05
2023-02-19T12:52:03.021Z,100476.14
2023-02-19T12:54:39.948Z,100477.83
2023-02-19T12:57:16.689Z,100483.65
2023-02-19T12:59:52.787Z,100494.88
2023-02-19T13:02:31.170Z,100488.61
2023-02-19T13:05:08.342Z,100487.16
2023-02-19T13:07:45.618Z,100496.65
2023-02-19T13:10:30.887Z,100493.67
2023-02-19T13:13:08.155Z,100496.86
2023-02-19T13:15:43.227Z,100502.93
2023-02-19T13:18:19.454Z,100500.58
2023-02-19T13:20:55.048Z,100502.89
2023-02-19T13:23:49.942Z,100503.67
2023-02-19T13:26:39.844Z,100499.16
2023-02-19T13:29:23.543Z,100499.36
2023-02-19T13:32:11.411Z,100489.45
2023-02-19T13:34:56.693Z,100492.80
2023-02-19T13:37:32.807Z,100490.92
2023-02-19T13:40:19.137Z,100486.69
2023-02-19T13:42:57.420Z,100488.65
2023-02-19T13:45:35.701Z,100487.45
2023-02-19T13:48:26.477Z,100490.10
2023-02-19T13:51:29.026Z,100503.86
2023-02-19T13:54:14.179Z,100516.79
2023-02-19T13:56:46.051Z,100519.50
2023-02-19T13:59:37.001Z,100520.67
2023-02-19T14:02:30.519Z,100517.42
2023-02-19T14:05:07.649Z,100525.98
2023-02-19T14:07:54.835Z,100533.80
2023-02-19T14:10:57.728Z,100538.33
2023-02-19T14:14:06.757Z,100534.17
2023-02-19T14:16:55.842Z,100537.23
2023-02-19T14:20:05.047Z,100547.14
2023-02-19T14:23:02.855Z,100550.55
2023-02-19T14:25:45.384Z,100546.03
2023-02-19T14:28:24.156Z,100558.48
2023-02-19T14:30:58.154Z,100560.23
2023-02-19T14:33:32.195Z,100566.63
2023-02-19T14:36:15.218Z,100557.33
2023-02-19T14:38:48.345Z,100565.80
2023-02-19T14:41:23.157Z,100571.75
2023-02-19T14:43:57.499Z,100571.04
2023-02-19T14:46:35.399Z,100566.49
2023-02-19T14:49:15.864Z,100573.38
2023-02-19T14:51:51.667Z,100582.95
2023-02-19T14:54:37.670Z,100582.31
2023-02-19T14:57:16.721Z,100591.51
2023-02-19T15:00:00.186Z,100581.63
2023-02-19T15:02:33.699Z,100584.10
2023-02-19T15:05:18.005Z,100588.30
2023-02-19T15:07:50.404Z,100591.55
2023-02-19T15:10:23.097Z,100603.14
2023-02-19T15:12:58.551Z,100615.88
2023-02-19T15:15:33.535Z,100623.38
2023-02-19T15:18:06.446Z,100628.48
2023-02-19T15:20:40.010Z,100633.18
2023-02-19T15:23:20.912Z,100637.61
2023-02-19T15:25:54.071Z,100641.27
2023-02-19T15:28:33.642Z,100647.23
2023-02-19T15:31:17.311Z,100651.77
2023-02-19T15:33:54.328Z,100656.66
2023-02-19T15:36:33.812Z,100658.61
2023-02-19T15:39:07.307Z,100653.98
2023-02-19T15:41:39.812Z,100659.35
2023-02-19T15:44:28.994Z,100659.92
2023-02-19T15:47:07.963Z,100654.58
2023-02-19T15:49:47.740Z,100654.42
2023-02-19T15:52:32.909Z,100655.17
2023-02-19T15:55:19.235Z,100656.25
2023-02-19T15:57:59.030Z,100656.07
2023-02-19T16:00:38.475Z,100662.53
2023-02-19T16:03:21.700Z,100654.27
2023-02-19T16:06:03.631Z,100669.14
2023-02-19T16:08:37.285Z,100671.84
2023-02-19T16:11:29.293Z,100678.10
2023-02-19T16:14:25.319Z,100682.94
2023-02-19T16:17:01.387Z,100688.31
2023-02-19T16:19:43.609Z,100692.42
2023-02-19T16:22:19.383Z,100694.58
2023-02-19T16:24:53.978Z,100691.52
2023-02-19T16:27:34.434Z,100692.38
2023-02-19T16:30:25.455Z,100701.33
2023-02-19T16:33:32.875Z,100706.16
2023-02-19T16:39:18.990Z,100713.15
2023-02-19T16:42:16.197Z,100723.52
2023-02-19T16:44:51.308Z,100737.46
2023-02-19T16:47:35.500Z,100744.42
2023-02-19T16:50:16.022Z,100747.11
2023-02-19T16:52:55.890Z,100762.31
2023-02-19T16:55:28.911Z,100774.13
2023-02-19T16:58:01.069Z,100774.52
2023-02-19T17:00:33.951Z,100775.76
2023-02-19T17:03:12.300Z,100781.43
2023-02-19T17:05:44.965Z,100783.90
2023-02-19T17:08:31.099Z,100786.59
2023-02-19T17:11:05.201Z,100789.64
2023-02-19T17:13:37.421Z,100788.73
2023-02-19T17:16:12.181Z,100795.16
2023-02-19T17:18:44.343Z,100800.30
2023-02-19T17:21:19.255Z,100801.02
2023-02-19T17:23:51.584Z,100796.70
2023-02-19T17:26:28.543Z,100798.83
2023-02-19T17:29:02.227Z,100803.34
2023-02-19T17:31:35.967Z,100810.10
2023-02-19T17:34:09.088Z,100812.95
2023-02-19T17:36:40.507Z,100817.27
2023-02-19T17:39:19.756Z,100819.75
2023-02-19T17:41:52.511Z,100828.46
2023-02-19T17:44:27.327Z,100831.45
2023-02-19T17:47:01.014Z,100836.38
2023-02-19T17:49:32.269Z,100834.65
2023-02-19T17:52:04.618Z,100837.11
2023-02-19T17:54:36.500Z,100845.83
2023-02-19T17:57:08.401Z,100842.11
2023-02-19T17:59:40.440Z,100845.12
2023-02-19T18:02:12.285Z,100855.11
2023-02-19T18:04:44.652Z,100860.45
2023-02-19T18:07:16.408Z,100858.22
2023-02-19T18:09:48.376Z,100859.31
2023-02-19T18:12:20.180Z,100862.82
2023-02-19T18:14:55.016Z,100863.61
2023-02-19T18:17:27.507Z,100867.52
2023-02-19T18:19:59.362Z,100865.58
2023-02-19T18:22:31.197Z,100868.21
2023-02-19T18:25:03.558Z,100868.70
2023-02-19T18:27:35.541Z,100874.67
2023-02-19T18:30:09.826Z,100882.23
2023-02-19T18:32:41.830Z,100888.61
2023-02-19T18:35:14.021Z,100887.83
2023-02-19T18:37:46.294Z,100888.63
2023-02-19T18:40:18.775Z,100884.73
2023-02-19T18:42:51.146Z,100887.19
2023-02-19T18:45:23.208Z,100885.02
2023-02-19T18:47:55.217Z,100889.63
2023-02-19T18:50:27.069Z,100888.08
2023-02-19T18:52:58.870Z,100890.71
2023-02-19T18:55:30.579Z,100888.77
2023-02-19T18:58:02.360Z,100893.25
2023-02-19T19:00:34.724Z,100889.20
2023-02-19T19:03:06.978Z,100889.44
2023-02-19T19:05:39.203Z,100887.60
2023-02-19T19:08:11.041Z,100888.48
2023-02-19T19:10:42.732Z,100887.80
2023-02-19T19:13:14.508Z,100899.70
2023-02-19T19:15:50.042Z,100901.51
2023-02-19T19:18:22.503Z,100901.89
2023-02-19T19:20:56.654Z,100899.39
2023-02-19T19:23:28.540Z,100888.09
2023-02-19T19:26:00.472Z,100892.58
2023-02-19T19:28:33.722Z,100898.46
2023-02-19T19:31:06.104Z,100896.82
2023-02-19T19:33:38.336Z,100900.60
2023-02-19T19:36:12.189Z,100904.83
2023-02-19T19:38:43.998Z,100905.83
2023-02-19T19:41:18.924Z,100900.22
2023-02-19T19:43:50.649Z,100901.45
2023-02-19T19:46:23.289Z,100908.92
2023-02-19T19:48:55.084Z,100904.02
2023-02-19T19:51:31.222Z,100904.55
2023-02-19T19:54:04.414Z,100904.10
2023-02-19T19:56:42.579Z,100903.91
2023-02-19T19:59:15.713Z,100904.52
2023-02-19T20:01:53.175Z,100905.05
2023-02-19T20:04:26.666Z,100904.86
2023-02-19T20:07:00.953Z,100901.63
2023-02-19T20:09:32.658Z,100908.48
2023-02-19T20:12:05.478Z,100907.61
2023-02-19T20:14:37.245Z,100904.22
2023-02-19T20:17:09.600Z,100907.15
2023-02-19T20:19:41.494Z,100906.54
2023-02-19T20:22:13.398Z,100906.16
2023-02-19T20:24:45.459Z,100910.91
2023-02-19T20:27:17.913Z,100914.88
2023-02-19T20:29:50.008Z,100912.77
2023-02-19T20:32:22.453Z,100916.37
2023-02-19T20:34:55.522Z,100919.90
2023-02-19T20:37:27.546Z,100927.46
2023-02-19T20:39:59.450Z,100927.27
2023-02-19T20:42:33.035Z,100931.09
2023-02-19T20:45:05.320Z,100931.61
2023-02-19T20:47:37.644Z,100929.52
2023-02-19T20:50:11.423Z,100931.90
2023-02-19T20:52:43.344Z,100936.89
2023-02-19T20:55:15.251Z,100941.06
2023-02-19T20:57:47.308Z,100943.94
2023-02-19T21:00:20.196Z,100947.73
2023-02-19T21:02:52.650Z,100957.08
2023-02-19T21:05:25.039Z,100955.10
2023-02-19T21:07:56.850Z,100952.02
2023-02-19T21:10:28.620Z,100952.13
2023-02-19T21:13:00.300Z,100955.73
2023-02-19T21:15:32.119Z,100950.13
2023-02-19T21:18:05.007Z,100962.61
2023-02-19T21:20:36.931Z,100969.15
2023-02-19T21:23:09.260Z,100970.88
2023-02-19T21:25:41.625Z,100973.92
2023-02-19T21:28:13.774Z,100973.42
2023-02-19T21:30:45.752Z,100975.70
2023-02-19T21:33:18.155Z,100979.36
2023-02-19T21:35:50.450Z,100977.33
2023-02-19T21:38:22.372Z,100974.20
2023-02-19T21:40:54.339Z,100972.76
2023-02-19T21:43:26.287Z,100983.02
2023-02-19T21:45:58.545Z,100982.21
2023-02-19T21:48:30.541Z,100983.13
2023-02-19T21:51:02.472Z,100983.48
2023-02-19T21:53:34.346Z,100985.58
2023-02-19T21:56:06.842Z,100982.35
2023-02-19T21:58:39.243Z,100977.66
2023-02-19T22:01:11.101Z,100978.98
2023-02-19T22:03:43.925Z,100980.71
2023-02-19T22:06:16.437Z,100976.58
2023-02-19T22:08:48.252Z,100970.66
2023-02-19T22:11:20.713Z,100963.05
2023-02-19T22:13:52.946Z,100961.97
2023-02-19T22:16:25.665Z,100965.30
2023-02-19T22:18:59.446Z,100967.42
2023-02-19T22:21:33.186Z,100965.74
2023-02-19T22:24:05.767Z,100965.53
2023-02-19T22:26:37.879Z,100955.60
2023-02-19T22:29:11.172Z,100964.52
2023-02-19T22:31:43.483Z,100972.52
2023-02-19T22:34:16.198Z,100973.02
2023-02-19T22:36:48.324Z,100968.02
2023-02-19T22:39:22.170Z,100962.77
2023-02-19T22:41:54.568Z,100955.08
2023-02-19T22:44:26.529Z,100951.13
2023-02-19T22:46:59.016Z,100953.02
2023-02-19T22:49:30.853Z,100955.35
2023-02-19T22:52:07.586Z,100956.65
2023-02-19T22:54:40.351Z,100957.59
2023-02-19T22:57:10.747Z,100959.34
2023-02-19T22:59:42.866Z,100960.96
2023-02-19T23:02:14.773Z,100960.56
2023-02-19T23:04:46.774Z,100959.27
2023-02-19T23:07:18.691Z,100961.16
2023-02-19T23:09:51.085Z,100952.61
2023-02-19T23:12:23.218Z,100949.59
2023-02-19T23:14:55.273Z,100955.16
2023-02-19T23:17:27.019Z,100955.55
2023-02-19T23:19:58.752Z,100960.01
2023-02-19T23:22:30.645Z,100952.05
2023-02-19T23:25:02.641Z,100955.23
2023-02-19T23:27:34.316Z,100946.91
2023-02-19T23:30:08.250Z,100957.59
2023-02-19T23:32:40.159Z,100961.17
2023-02-19T23:35:12.507Z,100961.72
2023-02-19T23:37:44.650Z,100957.02
2023-02-19T23:40:17.122Z,100952.82
2023-02-19T23:42:49.961Z,100942.34
2023-02-19T23:45:22.336Z,100936.46
2023-02-19T23:47:54.033Z,100929.19
2023-02-19T23:50:25.899Z,100915.48
2023-02-19T23:52:59.149Z,100912.85
2023-02-19T23:55:30.866Z,100908.35
2023-02-19T23:58:02.553Z,100904.38
